Turkmenbashi, Turkmenistan

10:26 AM TMT on September 02, 2014 (GMT +0500)
Turkmenbashi | Change Station
CLOSE
Current Station
Airport
Location: Turkmenbashi,
Elevation: 269 ft
Nearby Weather Stations

Elev 269 ft 40.05 °N, 53.01 °E | Updated 26 minutes ago

Scattered Clouds
Scattered Clouds
86 °F
Feels Like 86 °F
N
25
Wind Variable Wind from East

Today
High -- | Low -- °F
--% Chance of Precip.
Yesterday
High -- | Low -- °F
Precip. -- in
6:56 AM 7:58 PM
Waxing Crescent, 48% visible
Pressure 29.89 in
Visibility 5.0 miles
Clouds Scattered Clouds 10000 ft
Dew Point 39 °F
Humidity 19%
Rainfall 0.00 in
Snow Depth Not available.
UV 3 out of 12
Pollen Not available.
Air Quality Not available.
Flu Activity Not available.
METAR UTAK 020500Z 10011MPS 8000 SCT100 30/04 Q1012 TEMPO 09011G16MPS

More Conditions Fewer Conditions

Pressure 29.89 in
Visibility 5.0 miles
Clouds Scattered Clouds 10000 ft
Dew Point 39 °F
Humidity 19%
Rainfall 0.00 in
Snow Depth Not available.
UV 3 out of 12
Pollen Not available.
Air Quality Not available.
Flu Activity Not available.
METAR UTAK 020500Z 10011MPS 8000 SCT100 30/04 Q1012 TEMPO 09011G16MPS

More Conditions Fewer Conditions

10-Day Weather Forecast

Almanac

Astronomy

Sep. 02, 2014 Rise Set
Actual Time 6:56 AM TMT 7:58 PM TMT
Civil Twilight 6:28 AM TMT 8:26 PM TMT
Nautical Twilight 5:55 AM TMT 8:59 PM TMT
Astronomical Twilight 5:20 AM TMT 9:33 PM TMT
Moon 2:17 PM TMT No Moon Set
Length of Visible Light 13h 57m
Length of Day
13h 02m
Tomorrow will be 2m 33s shorter.
Waxing Crescent, 48% of the Moon is Illuminated
Today
Waxing Crescent
Sep 2
First Quarter
Sep 8
Full
Sep 15
Last Quarter
Sep 24
New

Yesterday's Extremes

Country Highs Country Lows

Community

WunderPhotos

Upload Photos

1,749,575 photos uploaded!

WunderBlogs® & News

Nearby

Snow Depth

Not available.

Earthquake Activity

City Distance Mag. Time & Date
No recent earthquake activity has been reported nearby.
Minimum magnitude displayed is 2.5.

Coastal Water Temperatures

Place Temperature
No Stations Reporting

Nearby Weather Stations